sensor_id;sensor_type;location;lat;lon;timestamp;temperature;humidity
6174;DHT22;3120;48.796;9.796;2023-06-24T00:01:28;17.30;88.60
6174;DHT22;3120;48.796;9.796;2023-06-24T00:03:54;17.20;90.30
6174;DHT22;3120;48.796;9.796;2023-06-24T00:06:20;17.20;91.30
6174;DHT22;3120;48.796;9.796;2023-06-24T00:08:47;17.20;91.20
6174;DHT22;3120;48.796;9.796;2023-06-24T00:11:13;17.10;91.20
6174;DHT22;3120;48.796;9.796;2023-06-24T00:13:47;16.90;91.00
6174;DHT22;3120;48.796;9.796;2023-06-24T00:16:12;16.90;91.80
6174;DHT22;3120;48.796;9.796;2023-06-24T00:18:38;17.00;91.40
6174;DHT22;3120;48.796;9.796;2023-06-24T00:21:07;17.10;91.60
6174;DHT22;3120;48.796;9.796;2023-06-24T00:23:32;17.00;91.60
6174;DHT22;3120;48.796;9.796;2023-06-24T00:26:00;17.00;92.20
6174;DHT22;3120;48.796;9.796;2023-06-24T00:28:26;17.00;92.50
6174;DHT22;3120;48.796;9.796;2023-06-24T00:30:52;17.20;92.40
6174;DHT22;3120;48.796;9.796;2023-06-24T00:33:18;16.80;92.30
6174;DHT22;3120;48.796;9.796;2023-06-24T00:35:44;17.10;92.50
6174;DHT22;3120;48.796;9.796;2023-06-24T00:38:10;17.00;92.40
6174;DHT22;3120;48.796;9.796;2023-06-24T00:40:37;17.00;92.30
6174;DHT22;3120;48.796;9.796;2023-06-24T00:43:03;17.00;92.10
6174;DHT22;3120;48.796;9.796;2023-06-24T00:45:29;17.10;92.00
6174;DHT22;3120;48.796;9.796;2023-06-24T00:47:59;17.10;92.20
6174;DHT22;3120;48.796;9.796;2023-06-24T00:50:24;16.90;91.50
6174;DHT22;3120;48.796;9.796;2023-06-24T00:52:50;16.90;92.50
6174;DHT22;3120;48.796;9.796;2023-06-24T00:55:16;17.00;92.70
6174;DHT22;3120;48.796;9.796;2023-06-24T00:57:47;16.70;92.90
6174;DHT22;3120;48.796;9.796;2023-06-24T01:00:21;16.70;93.20
6174;DHT22;3120;48.796;9.796;2023-06-24T01:02:48;16.60;92.80
6174;DHT22;3120;48.796;9.796;2023-06-24T01:05:14;16.50;92.90
6174;DHT22;3120;48.796;9.796;2023-06-24T01:07:41;16.60;93.80
6174;DHT22;3120;48.796;9.796;2023-06-24T01:10:08;16.60;93.40
6174;DHT22;3120;48.796;9.796;2023-06-24T01:12:41;16.50;93.90
6174;DHT22;3120;48.796;9.796;2023-06-24T01:15:10;16.40;94.20
6174;DHT22;3120;48.796;9.796;2023-06-24T01:18:11;16.30;94.40
6174;DHT22;3120;48.796;9.796;2023-06-24T01:20:51;16.20;94.80
6174;DHT22;3120;48.796;9.796;2023-06-24T01:36:37;15.90;96.60
6174;DHT22;3120;48.796;9.796;2023-06-24T01:39:08;16.00;96.80
6174;DHT22;3120;48.796;9.796;2023-06-24T01:41:40;15.90;97.10
6174;DHT22;3120;48.796;9.796;2023-06-24T01:44:08;15.90;98.00
6174;DHT22;3120;48.796;9.796;2023-06-24T01:46:36;15.70;97.90
6174;DHT22;3120;48.796;9.796;2023-06-24T01:49:04;15.60;98.50
6174;DHT22;3120;48.796;9.796;2023-06-24T01:51:34;15.70;97.80
6174;DHT22;3120;48.796;9.796;2023-06-24T01:54:04;15.70;98.30
6174;DHT22;3120;48.796;9.796;2023-06-24T01:56:32;15.70;97.90
6174;DHT22;3120;48.796;9.796;2023-06-24T01:59:01;15.70;98.30
6174;DHT22;3120;48.796;9.796;2023-06-24T02:01:28;15.90;97.80
6174;DHT22;3120;48.796;9.796;2023-06-24T02:03:57;15.70;98.10
6174;DHT22;3120;48.796;9.796;2023-06-24T02:06:24;15.60;98.30
6174;DHT22;3120;48.796;9.796;2023-06-24T02:08:53;15.60;99.00
6174;DHT22;3120;48.796;9.796;2023-06-24T02:11:21;15.50;98.80
6174;DHT22;3120;48.796;9.796;2023-06-24T02:13:48;15.50;98.70
6174;DHT22;3120;48.796;9.796;2023-06-24T02:16:16;15.30;99.30
6174;DHT22;3120;48.796;9.796;2023-06-24T02:18:43;15.30;99.90
6174;DHT22;3120;48.796;9.796;2023-06-24T02:21:10;15.30;99.90
6174;DHT22;3120;48.796;9.796;2023-06-24T02:23:37;15.20;99.80
6174;DHT22;3120;48.796;9.796;2023-06-24T02:26:04;15.20;99.70
6174;DHT22;3120;48.796;9.796;2023-06-24T02:28:31;15.20;99.50
6174;DHT22;3120;48.796;9.796;2023-06-24T02:30:58;15.10;99.90
6174;DHT22;3120;48.796;9.796;2023-06-24T02:33:25;15.10;99.90
6174;DHT22;3120;48.796;9.796;2023-06-24T02:35:52;15.10;99.90
6174;DHT22;3120;48.796;9.796;2023-06-24T02:38:17;15.10;99.80
6174;DHT22;3120;48.796;9.796;2023-06-24T02:40:45;15.00;99.90
6174;DHT22;3120;48.796;9.796;2023-06-24T02:43:11;14.90;99.90
6174;DHT22;3120;48.796;9.796;2023-06-24T02:45:37;14.90;99.90
6174;DHT22;3120;48.796;9.796;2023-06-24T02:48:04;14.90;99.80
6174;DHT22;3120;48.796;9.796;2023-06-24T02:50:30;14.80;99.90
6174;DHT22;3120;48.796;9.796;2023-06-24T02:52:57;15.30;99.60
6174;DHT22;3120;48.796;9.796;2023-06-24T02:55:23;15.30;99.20
6174;DHT22;3120;48.796;9.796;2023-06-24T02:57:48;15.40;98.20
6174;DHT22;3120;48.796;9.796;2023-06-24T03:00:16;15.80;97.40
6174;DHT22;3120;48.796;9.796;2023-06-24T03:02:43;16.10;96.10
6174;DHT22;3120;48.796;9.796;2023-06-24T03:05:10;15.80;96.80
6174;DHT22;3120;48.796;9.796;2023-06-24T03:07:37;16.00;95.50
6174;DHT22;3120;48.796;9.796;2023-06-24T03:10:04;15.50;97.30
6174;DHT22;3120;48.796;9.796;2023-06-24T03:12:31;15.70;96.90
6174;DHT22;3120;48.796;9.796;2023-06-24T03:14:57;15.90;96.00
6174;DHT22;3120;48.796;9.796;2023-06-24T03:17:22;15.80;95.80
6174;DHT22;3120;48.796;9.796;2023-06-24T03:19:50;15.60;96.50
6174;DHT22;3120;48.796;9.796;2023-06-24T03:22:15;15.70;96.70
6174;DHT22;3120;48.796;9.796;2023-06-24T03:24:45;16.10;95.20
6174;DHT22;3120;48.796;9.796;2023-06-24T03:27:11;16.30;93.70
6174;DHT22;3120;48.796;9.796;2023-06-24T03:29:36;16.60;93.40
6174;DHT22;3120;48.796;9.796;2023-06-24T03:32:02;16.70;92.20
6174;DHT22;3120;48.796;9.796;2023-06-24T03:34:28;16.50;92.30
6174;DHT22;3120;48.796;9.796;2023-06-24T03:36:54;16.60;92.70
6174;DHT22;3120;48.796;9.796;2023-06-24T03:39:20;16.40;92.60
6174;DHT22;3120;48.796;9.796;2023-06-24T03:41:46;16.60;91.80
6174;DHT22;3120;48.796;9.796;2023-06-24T03:44:12;16.60;91.80
6174;DHT22;3120;48.796;9.796;2023-06-24T03:46:37;16.60;91.50
6174;DHT22;3120;48.796;9.796;2023-06-24T03:49:03;16.80;91.50
6174;DHT22;3120;48.796;9.796;2023-06-24T03:51:29;16.80;90.90
6174;DHT22;3120;48.796;9.796;2023-06-24T03:53:54;16.60;90.80
6174;DHT22;3120;48.796;9.796;2023-06-24T03:56:26;16.70;91.20
6174;DHT22;3120;48.796;9.796;2023-06-24T03:58:52;16.60;91.10
6174;DHT22;3120;48.796;9.796;2023-06-24T04:01:18;16.70;90.90
6174;DHT22;3120;48.796;9.796;2023-06-24T04:03:45;16.70;91.30
6174;DHT22;3120;48.796;9.796;2023-06-24T04:06:10;17.00;90.20
6174;DHT22;3120;48.796;9.796;2023-06-24T04:08:36;16.70;91.10
6174;DHT22;3120;48.796;9.796;2023-06-24T04:11:05;16.90;90.20
6174;DHT22;3120;48.796;9.796;2023-06-24T04:13:32;16.70;91.10
6174;DHT22;3120;48.796;9.796;2023-06-24T04:15:58;16.70;91.00
6174;DHT22;3120;48.796;9.796;2023-06-24T04:18:24;16.90;90.70
6174;DHT22;3120;48.796;9.796;2023-06-24T04:20:49;16.20;92.50
6174;DHT22;3120;48.796;9.796;2023-06-24T04:23:15;15.60;94.90
6174;DHT22;3120;48.796;9.796;2023-06-24T04:25:41;15.40;95.70
6174;DHT22;3120;48.796;9.796;2023-06-24T04:28:08;15.10;96.60
6174;DHT22;3120;48.796;9.796;2023-06-24T04:30:33;15.00;98.30
6174;DHT22;3120;48.796;9.796;2023-06-24T04:33:22;15.00;98.00
6174;DHT22;3120;48.796;9.796;2023-06-24T04:35:48;14.90;97.70
6174;DHT22;3120;48.796;9.796;2023-06-24T04:38:14;15.00;98.20
6174;DHT22;3120;48.796;9.796;2023-06-24T04:40:44;15.10;98.00
6174;DHT22;3120;48.796;9.796;2023-06-24T04:43:09;15.10;97.80
6174;DHT22;3120;48.796;9.796;2023-06-24T04:45:35;15.20;97.90
6174;DHT22;3120;48.796;9.796;2023-06-24T04:48:00;15.10;98.30
6174;DHT22;3120;48.796;9.796;2023-06-24T04:50:26;15.10;98.30
6174;DHT22;3120;48.796;9.796;2023-06-24T04:52:53;15.20;97.60
6174;DHT22;3120;48.796;9.796;2023-06-24T04:55:21;15.30;96.70
6174;DHT22;3120;48.796;9.796;2023-06-24T04:57:47;15.30;97.10
6174;DHT22;3120;48.796;9.796;2023-06-24T05:00:13;15.40;96.70
6174;DHT22;3120;48.796;9.796;2023-06-24T05:02:39;15.40;96.80
6174;DHT22;3120;48.796;9.796;2023-06-24T05:05:05;15.40;96.50
6174;DHT22;3120;48.796;9.796;2023-06-24T05:07:30;15.50;96.00
6174;DHT22;3120;48.796;9.796;2023-06-24T05:09:56;15.60;96.20
6174;DHT22;3120;48.796;9.796;2023-06-24T05:12:21;15.60;95.40
6174;DHT22;3120;48.796;9.796;2023-06-24T05:14:51;15.70;95.20
6174;DHT22;3120;48.796;9.796;2023-06-24T05:17:20;15.70;95.30
6174;DHT22;3120;48.796;9.796;2023-06-24T05:19:45;15.70;95.30
6174;DHT22;3120;48.796;9.796;2023-06-24T05:22:12;15.90;94.60
6174;DHT22;3120;48.796;9.796;2023-06-24T05:24:38;16.00;94.10
6174;DHT22;3120;48.796;9.796;2023-06-24T05:27:07;16.10;94.20
6174;DHT22;3120;48.796;9.796;2023-06-24T05:29:33;16.20;94.20
6174;DHT22;3120;48.796;9.796;2023-06-24T05:31:59;16.30;93.80
6174;DHT22;3120;48.796;9.796;2023-06-24T05:34:27;16.50;93.00
6174;DHT22;3120;48.796;9.796;2023-06-24T05:36:52;16.50;92.50
6174;DHT22;3120;48.796;9.796;2023-06-24T05:39:20;16.60;92.20
6174;DHT22;3120;48.796;9.796;2023-06-24T05:41:46;16.80;92.70
6174;DHT22;3120;48.796;9.796;2023-06-24T05:47:26;17.10;91.40
6174;DHT22;3120;48.796;9.796;2023-06-24T05:50:26;17.40;90.10
6174;DHT22;3120;48.796;9.796;2023-06-24T05:52:59;17.50;89.30
6174;DHT22;3120;48.796;9.796;2023-06-24T05:55:32;17.20;90.50
6174;DHT22;3120;48.796;9.796;2023-06-24T05:57:58;17.50;90.30
6174;DHT22;3120;48.796;9.796;2023-06-24T06:00:23;17.40;90.20
6174;DHT22;3120;48.796;9.796;2023-06-24T06:02:49;17.60;90.30
6174;DHT22;3120;48.796;9.796;2023-06-24T06:05:20;17.70;88.90
6174;DHT22;3120;48.796;9.796;2023-06-24T06:08:07;18.00;86.30
6174;DHT22;3120;48.796;9.796;2023-06-24T06:10:33;18.10;86.30
6174;DHT22;3120;48.796;9.796;2023-06-24T06:12:58;18.20;84.90
6174;DHT22;3120;48.796;9.796;2023-06-24T06:15:24;18.40;83.90
6174;DHT22;3120;48.796;9.796;2023-06-24T06:17:51;18.50;82.50
6174;DHT22;3120;48.796;9.796;2023-06-24T06:20:18;18.60;81.80
6174;DHT22;3120;48.796;9.796;2023-06-24T06:22:44;18.90;78.20
6174;DHT22;3120;48.796;9.796;2023-06-24T06:25:10;19.00;75.30
6174;DHT22;3120;48.796;9.796;2023-06-24T06:27:36;19.10;74.40
6174;DHT22;3120;48.796;9.796;2023-06-24T06:30:04;19.40;74.20
6174;DHT22;3120;48.796;9.796;2023-06-24T06:32:30;19.40;73.70
6174;DHT22;3120;48.796;9.796;2023-06-24T06:34:57;19.60;73.60
6174;DHT22;3120;48.796;9.796;2023-06-24T06:37:24;19.80;70.00
6174;DHT22;3120;48.796;9.796;2023-06-24T06:39:50;20.00;70.10
6174;DHT22;3120;48.796;9.796;2023-06-24T06:42:16;20.10;68.90
6174;DHT22;3120;48.796;9.796;2023-06-24T06:44:41;20.20;69.00
6174;DHT22;3120;48.796;9.796;2023-06-24T06:47:07;20.20;67.80
6174;DHT22;3120;48.796;9.796;2023-06-24T06:49:38;20.30;67.70
6174;DHT22;3120;48.796;9.796;2023-06-24T08:21:02;23.20;53.80
6174;DHT22;3120;48.796;9.796;2023-06-24T08:23:29;23.20;54.10
6174;DHT22;3120;48.796;9.796;2023-06-24T08:25:58;23.30;53.30
6174;DHT22;3120;48.796;9.796;2023-06-24T08:37:30;23.30;53.30
6174;DHT22;3120;48.796;9.796;2023-06-24T08:40:17;23.50;52.70
6174;DHT22;3120;48.796;9.796;2023-06-24T11:31:07;35.20;26.60
6174;DHT22;3120;48.796;9.796;2023-06-24T11:33:35;35.70;26.00
6174;DHT22;3120;48.796;9.796;2023-06-24T11:36:01;36.80;24.40
6174;DHT22;3120;48.796;9.796;2023-06-24T11:38:28;37.20;23.60
6174;DHT22;3120;48.796;9.796;2023-06-24T11:40:57;35.70;25.40
6174;DHT22;3120;48.796;9.796;2023-06-24T11:43:25;32.10;28.60
6174;DHT22;3120;48.796;9.796;2023-06-24T11:45:51;29.90;32.30
6174;DHT22;3120;48.796;9.796;2023-06-24T11:48:16;28.80;35.20
6174;DHT22;3120;48.796;9.796;2023-06-24T11:50:42;28.30;35.30
6174;DHT22;3120;48.796;9.796;2023-06-24T11:53:07;28.20;34.80
6174;DHT22;3120;48.796;9.796;2023-06-24T11:55:33;27.90;36.10
6174;DHT22;3120;48.796;9.796;2023-06-24T11:58:03;27.50;35.80
6174;DHT22;3120;48.796;9.796;2023-06-24T12:00:41;27.60;35.60
6174;DHT22;3120;48.796;9.796;2023-06-24T12:03:11;29.10;36.00
6174;DHT22;3120;48.796;9.796;2023-06-24T12:05:38;30.60;30.90
6174;DHT22;3120;48.796;9.796;2023-06-24T12:08:11;31.90;30.60
6174;DHT22;3120;48.796;9.796;2023-06-24T12:10:37;33.10;28.80
6174;DHT22;3120;48.796;9.796;2023-06-24T12:13:04;33.90;28.00
6174;DHT22;3120;48.796;9.796;2023-06-24T12:15:31;34.70;27.10
6174;DHT22;3120;48.796;9.796;2023-06-24T12:17:57;33.90;27.20
6174;DHT22;3120;48.796;9.796;2023-06-24T12:20:28;33.60;27.90
6174;DHT22;3120;48.796;9.796;2023-06-24T12:22:53;34.10;28.60
6174;DHT22;3120;48.796;9.796;2023-06-24T12:25:19;34.70;27.60
6174;DHT22;3120;48.796;9.796;2023-06-24T12:27:45;35.30;26.50
6174;DHT22;3120;48.796;9.796;2023-06-24T12:30:11;34.60;25.70
6174;DHT22;3120;48.796;9.796;2023-06-24T12:32:37;33.20;26.40
6174;DHT22;3120;48.796;9.796;2023-06-24T12:35:03;31.80;27.10
6174;DHT22;3120;48.796;9.796;2023-06-24T12:37:33;32.10;28.70
6174;DHT22;3120;48.796;9.796;2023-06-24T12:40:03;33.60;26.60
6174;DHT22;3120;48.796;9.796;2023-06-24T12:42:28;34.80;24.60
6174;DHT22;3120;48.796;9.796;2023-06-24T12:44:54;34.60;25.50
6174;DHT22;3120;48.796;9.796;2023-06-24T12:47:20;34.40;25.50
6174;DHT22;3120;48.796;9.796;2023-06-24T14:20:24;36.90;22.70
6174;DHT22;3120;48.796;9.796;2023-06-24T14:22:51;38.00;21.70
6174;DHT22;3120;48.796;9.796;2023-06-24T14:25:17;37.80;21.50
6174;DHT22;3120;48.796;9.796;2023-06-24T14:27:42;36.10;22.80
6174;DHT22;3120;48.796;9.796;2023-06-24T14:30:08;35.60;24.00
6174;DHT22;3120;48.796;9.796;2023-06-24T14:32:34;34.30;25.60
6174;DHT22;3120;48.796;9.796;2023-06-24T14:35:00;32.90;27.10
6174;DHT22;3120;48.796;9.796;2023-06-24T14:37:25;31.70;28.50
6174;DHT22;3120;48.796;9.796;2023-06-24T14:39:51;31.70;28.50
6174;DHT22;3120;48.796;9.796;2023-06-24T14:42:19;31.70;28.00
6174;DHT22;3120;48.796;9.796;2023-06-24T14:44:44;30.90;29.50
6174;DHT22;3120;48.796;9.796;2023-06-24T14:47:10;31.40;29.60
6174;DHT22;3120;48.796;9.796;2023-06-24T14:49:36;32.70;26.70
6174;DHT22;3120;48.796;9.796;2023-06-24T14:52:01;34.50;24.50
6174;DHT22;3120;48.796;9.796;2023-06-24T14:57:39;35.40;25.50
6174;DHT22;3120;48.796;9.796;2023-06-24T15:00:09;35.40;24.70
6174;DHT22;3120;48.796;9.796;2023-06-24T15:02:35;35.10;24.60
6174;DHT22;3120;48.796;9.796;2023-06-24T15:05:02;35.10;23.90
6174;DHT22;3120;48.796;9.796;2023-06-24T15:07:28;35.20;25.20
6174;DHT22;3120;48.796;9.796;2023-06-24T15:09:53;36.30;23.10
6174;DHT22;3120;48.796;9.796;2023-06-24T15:12:19;36.40;24.30
6174;DHT22;3120;48.796;9.796;2023-06-24T15:14:45;35.80;23.70
6174;DHT22;3120;48.796;9.796;2023-06-24T15:17:11;35.70;24.20
6174;DHT22;3120;48.796;9.796;2023-06-24T15:19:37;36.00;23.30
6174;DHT22;3120;48.796;9.796;2023-06-24T15:22:03;35.80;23.60
6174;DHT22;3120;48.796;9.796;2023-06-24T15:24:29;36.50;24.60
6174;DHT22;3120;48.796;9.796;2023-06-24T15:26:56;36.50;24.20
6174;DHT22;3120;48.796;9.796;2023-06-24T15:29:23;36.10;23.10
6174;DHT22;3120;48.796;9.796;2023-06-24T15:31:48;37.70;21.90
6174;DHT22;3120;48.796;9.796;2023-06-24T15:34:14;37.20;22.10
6174;DHT22;3120;48.796;9.796;2023-06-24T15:37:02;36.20;24.00
6174;DHT22;3120;48.796;9.796;2023-06-24T15:39:28;36.60;22.50
6174;DHT22;3120;48.796;9.796;2023-06-24T15:41:55;37.60;22.30
6174;DHT22;3120;48.796;9.796;2023-06-24T15:44:20;37.70;21.80
6174;DHT22;3120;48.796;9.796;2023-06-24T15:46:46;37.60;22.90
6174;DHT22;3120;48.796;9.796;2023-06-24T15:49:13;37.20;22.90
6174;DHT22;3120;48.796;9.796;2023-06-24T15:51:40;36.40;24.00
6174;DHT22;3120;48.796;9.796;2023-06-24T15:54:07;35.50;24.30
6174;DHT22;3120;48.796;9.796;2023-06-24T15:59:36;35.90;24.00
6174;DHT22;3120;48.796;9.796;2023-06-24T16:02:06;35.10;24.80
6174;DHT22;3120;48.796;9.796;2023-06-24T16:04:31;35.20;24.70
6174;DHT22;3120;48.796;9.796;2023-06-24T16:06:57;35.30;24.40
6174;DHT22;3120;48.796;9.796;2023-06-24T16:09:23;35.00;24.20
6174;DHT22;3120;48.796;9.796;2023-06-24T16:11:49;35.30;24.30
6174;DHT22;3120;48.796;9.796;2023-06-24T16:14:14;35.30;24.20
6174;DHT22;3120;48.796;9.796;2023-06-24T16:16:40;34.90;24.70
6174;DHT22;3120;48.796;9.796;2023-06-24T16:19:06;35.30;24.30
6174;DHT22;3120;48.796;9.796;2023-06-24T16:21:31;35.20;25.40
6174;DHT22;3120;48.796;9.796;2023-06-24T16:23:58;35.10;24.70
6174;DHT22;3120;48.796;9.796;2023-06-24T16:26:24;35.20;24.70
6174;DHT22;3120;48.796;9.796;2023-06-24T16:28:49;35.10;24.70
6174;DHT22;3120;48.796;9.796;2023-06-24T16:31:16;34.50;25.50
6174;DHT22;3120;48.796;9.796;2023-06-24T16:33:42;34.20;26.90
6174;DHT22;3120;48.796;9.796;2023-06-24T16:36:08;34.70;26.80
6174;DHT22;3120;48.796;9.796;2023-06-24T16:38:33;35.00;25.90
6174;DHT22;3120;48.796;9.796;2023-06-24T16:40:59;35.40;25.00
6174;DHT22;3120;48.796;9.796;2023-06-24T16:43:26;35.30;25.00
6174;DHT22;3120;48.796;9.796;2023-06-24T16:45:52;35.00;25.20
6174;DHT22;3120;48.796;9.796;2023-06-24T16:48:17;35.00;25.60
6174;DHT22;3120;48.796;9.796;2023-06-24T16:53:11;34.40;26.70
6174;DHT22;3120;48.796;9.796;2023-06-24T16:55:37;34.50;26.90
6174;DHT22;3120;48.796;9.796;2023-06-24T16:58:04;34.90;25.00
6174;DHT22;3120;48.796;9.796;2023-06-24T17:00:29;34.60;25.10
6174;DHT22;3120;48.796;9.796;2023-06-24T17:02:55;34.50;25.00
6174;DHT22;3120;48.796;9.796;2023-06-24T17:05:21;34.40;25.90
6174;DHT22;3120;48.796;9.796;2023-06-24T17:07:46;34.00;25.40
6174;DHT22;3120;48.796;9.796;2023-06-24T17:10:12;33.70;25.80
6174;DHT22;3120;48.796;9.796;2023-06-24T17:12:37;34.10;25.90
6174;DHT22;3120;48.796;9.796;2023-06-24T17:15:03;34.20;25.40
6174;DHT22;3120;48.796;9.796;2023-06-24T17:17:34;34.50;24.90
6174;DHT22;3120;48.796;9.796;2023-06-24T17:20:00;33.90;25.40
6174;DHT22;3120;48.796;9.796;2023-06-24T17:22:26;33.80;25.80
6174;DHT22;3120;48.796;9.796;2023-06-24T17:24:57;34.00;25.60
6174;DHT22;3120;48.796;9.796;2023-06-24T17:27:25;33.50;25.90
6174;DHT22;3120;48.796;9.796;2023-06-24T17:29:54;33.50;25.70
6174;DHT22;3120;48.796;9.796;2023-06-24T17:32:20;33.60;25.70
6174;DHT22;3120;48.796;9.796;2023-06-24T17:34:46;34.00;25.70
6174;DHT22;3120;48.796;9.796;2023-06-24T17:37:12;33.70;26.30
6174;DHT22;3120;48.796;9.796;2023-06-24T17:39:51;33.30;25.70
6174;DHT22;3120;48.796;9.796;2023-06-24T17:42:33;33.20;27.10
6174;DHT22;3120;48.796;9.796;2023-06-24T17:45:03;33.10;27.10
6174;DHT22;3120;48.796;9.796;2023-06-24T17:47:29;32.60;27.00
6174;DHT22;3120;48.796;9.796;2023-06-24T17:49:55;31.80;28.20
6174;DHT22;3120;48.796;9.796;2023-06-24T17:52:28;30.80;29.30
6174;DHT22;3120;48.796;9.796;2023-06-24T17:54:56;30.20;30.20
6174;DHT22;3120;48.796;9.796;2023-06-24T17:57:25;29.60;30.90
6174;DHT22;3120;48.796;9.796;2023-06-24T17:59:51;29.00;31.70
6174;DHT22;3120;48.796;9.796;2023-06-24T18:02:17;28.50;32.80
6174;DHT22;3120;48.796;9.796;2023-06-24T18:04:43;28.60;32.60
6174;DHT22;3120;48.796;9.796;2023-06-24T18:07:08;29.00;31.80
6174;DHT22;3120;48.796;9.796;2023-06-24T18:09:34;29.70;31.60
6174;DHT22;3120;48.796;9.796;2023-06-24T18:12:00;29.90;31.30
6174;DHT22;3120;48.796;9.796;2023-06-24T18:14:25;30.70;29.90
6174;DHT22;3120;48.796;9.796;2023-06-24T18:16:53;30.90;29.40
6174;DHT22;3120;48.796;9.796;2023-06-24T18:19:22;30.90;29.60
6174;DHT22;3120;48.796;9.796;2023-06-24T18:21:48;31.00;29.50
6174;DHT22;3120;48.796;9.796;2023-06-24T18:24:16;30.90;29.80
6174;DHT22;3120;48.796;9.796;2023-06-24T18:26:41;30.90;30.00
6174;DHT22;3120;48.796;9.796;2023-06-24T18:29:07;30.50;30.20
6174;DHT22;3120;48.796;9.796;2023-06-24T18:31:33;30.30;30.80
6174;DHT22;3120;48.796;9.796;2023-06-24T18:34:03;30.40;31.00
6174;DHT22;3120;48.796;9.796;2023-06-24T18:36:29;30.30;31.30
6174;DHT22;3120;48.796;9.796;2023-06-24T18:38:55;30.50;30.80
6174;DHT22;3120;48.796;9.796;2023-06-24T18:41:20;30.00;31.90
6174;DHT22;3120;48.796;9.796;2023-06-24T18:43:46;29.70;32.80
6174;DHT22;3120;48.796;9.796;2023-06-24T18:46:11;29.50;33.40
6174;DHT22;3120;48.796;9.796;2023-06-24T18:48:37;29.00;35.00
6174;DHT22;3120;48.796;9.796;2023-06-24T18:58:56;27.10;39.60
6174;DHT22;3120;48.796;9.796;2023-06-24T19:01:22;26.80;40.10
6174;DHT22;3120;48.796;9.796;2023-06-24T19:03:48;26.50;41.50
6174;DHT22;3120;48.796;9.796;2023-06-24T19:06:13;26.30;41.70
6174;DHT22;3120;48.796;9.796;2023-06-24T19:08:39;26.00;42.70
6174;DHT22;3120;48.796;9.796;2023-06-24T19:11:04;25.80;43.70
6174;DHT22;3120;48.796;9.796;2023-06-24T19:13:30;25.60;44.40
6174;DHT22;3120;48.796;9.796;2023-06-24T19:15:55;25.40;45.10
6174;DHT22;3120;48.796;9.796;2023-06-24T19:18:21;25.40;46.00
6174;DHT22;3120;48.796;9.796;2023-06-24T19:20:47;25.30;45.40
6174;DHT22;3120;48.796;9.796;2023-06-24T19:23:12;25.10;46.20
6174;DHT22;3120;48.796;9.796;2023-06-24T19:25:38;24.90;47.70
6174;DHT22;3120;48.796;9.796;2023-06-24T19:28:04;24.70;47.10
6174;DHT22;3120;48.796;9.796;2023-06-24T19:30:30;24.50;48.30
6174;DHT22;3120;48.796;9.796;2023-06-24T19:32:55;24.40;49.10
6174;DHT22;3120;48.796;9.796;2023-06-24T19:35:21;24.40;48.20
6174;DHT22;3120;48.796;9.796;2023-06-24T19:37:46;24.20;47.60
6174;DHT22;3120;48.796;9.796;2023-06-24T19:40:13;24.10;49.00
6174;DHT22;3120;48.796;9.796;2023-06-24T19:42:39;24.00;49.10
6174;DHT22;3120;48.796;9.796;2023-06-24T19:45:05;23.90;50.80
6174;DHT22;3120;48.796;9.796;2023-06-24T19:47:31;23.80;50.60
6174;DHT22;3120;48.796;9.796;2023-06-24T19:49:57;23.70;50.30
6174;DHT22;3120;48.796;9.796;2023-06-24T19:52:25;23.60;50.90
6174;DHT22;3120;48.796;9.796;2023-06-24T19:54:51;23.40;51.70
6174;DHT22;3120;48.796;9.796;2023-06-24T19:57:18;23.30;52.40
6174;DHT22;3120;48.796;9.796;2023-06-24T19:59:44;23.20;52.90
6174;DHT22;3120;48.796;9.796;2023-06-24T20:02:10;23.10;53.60
6174;DHT22;3120;48.796;9.796;2023-06-24T20:04:35;23.00;53.90
6174;DHT22;3120;48.796;9.796;2023-06-24T20:07:01;22.80;54.20
6174;DHT22;3120;48.796;9.796;2023-06-24T20:09:27;22.90;54.80
6174;DHT22;3120;48.796;9.796;2023-06-24T20:11:53;22.80;56.20
6174;DHT22;3120;48.796;9.796;2023-06-24T20:14:19;22.70;55.40
6174;DHT22;3120;48.796;9.796;2023-06-24T20:16:44;22.60;55.70
6174;DHT22;3120;48.796;9.796;2023-06-24T20:19:10;22.80;55.40
6174;DHT22;3120;48.796;9.796;2023-06-24T20:21:35;22.40;56.20
6174;DHT22;3120;48.796;9.796;2023-06-24T20:24:01;22.20;58.20
6174;DHT22;3120;48.796;9.796;2023-06-24T20:26:27;22.20;56.80
6174;DHT22;3120;48.796;9.796;2023-06-24T20:28:52;22.10;57.30
6174;DHT22;3120;48.796;9.796;2023-06-24T20:31:18;22.10;57.40
6174;DHT22;3120;48.796;9.796;2023-06-24T20:33:44;22.00;57.80
6174;DHT22;3120;48.796;9.796;2023-06-24T20:36:09;22.00;58.00
6174;DHT22;3120;48.796;9.796;2023-06-24T20:38:35;21.80;58.70
6174;DHT22;3120;48.796;9.796;2023-06-24T20:41:01;21.80;58.40
6174;DHT22;3120;48.796;9.796;2023-06-24T20:43:27;21.80;58.40
6174;DHT22;3120;48.796;9.796;2023-06-24T20:45:54;21.70;59.10
6174;DHT22;3120;48.796;9.796;2023-06-24T20:48:19;21.40;60.30
6174;DHT22;3120;48.796;9.796;2023-06-24T20:50:45;21.20;60.30
6174;DHT22;3120;48.796;9.796;2023-06-24T20:53:11;21.20;61.10
6174;DHT22;3120;48.796;9.796;2023-06-24T20:55:37;21.00;61.30
6174;DHT22;3120;48.796;9.796;2023-06-24T20:58:03;20.90;62.10
6174;DHT22;3120;48.796;9.796;2023-06-24T21:00:29;20.90;63.00
6174;DHT22;3120;48.796;9.796;2023-06-24T21:02:55;20.90;62.50
6174;DHT22;3120;48.796;9.796;2023-06-24T21:05:20;20.90;63.00
6174;DHT22;3120;48.796;9.796;2023-06-24T21:07:46;20.70;63.30
6174;DHT22;3120;48.796;9.796;2023-06-24T21:10:11;20.60;64.60
6174;DHT22;3120;48.796;9.796;2023-06-24T21:12:37;20.50;65.80
6174;DHT22;3120;48.796;9.796;2023-06-24T21:15:03;20.40;66.00
6174;DHT22;3120;48.796;9.796;2023-06-24T21:17:29;20.30;66.50
6174;DHT22;3120;48.796;9.796;2023-06-24T21:19:55;20.30;65.80
6174;DHT22;3120;48.796;9.796;2023-06-24T21:22:20;20.10;65.90
6174;DHT22;3120;48.796;9.796;2023-06-24T21:24:46;20.20;66.20
6174;DHT22;3120;48.796;9.796;2023-06-24T21:27:11;20.10;66.70
6174;DHT22;3120;48.796;9.796;2023-06-24T21:29:37;20.00;67.20
6174;DHT22;3120;48.796;9.796;2023-06-24T21:32:04;20.10;67.30
6174;DHT22;3120;48.796;9.796;2023-06-24T21:34:31;20.00;67.50
6174;DHT22;3120;48.796;9.796;2023-06-24T21:36:57;19.90;68.60
6174;DHT22;3120;48.796;9.796;2023-06-24T21:39:22;19.80;68.60
6174;DHT22;3120;48.796;9.796;2023-06-24T21:41:48;19.70;68.80
6174;DHT22;3120;48.796;9.796;2023-06-24T21:44:13;19.70;69.10
6174;DHT22;3120;48.796;9.796;2023-06-24T21:46:39;19.70;69.50
6174;DHT22;3120;48.796;9.796;2023-06-24T21:49:05;19.60;69.50
6174;DHT22;3120;48.796;9.796;2023-06-24T21:51:32;19.50;70.20
6174;DHT22;3120;48.796;9.796;2023-06-24T21:53:59;19.40;70.70
6174;DHT22;3120;48.796;9.796;2023-06-24T21:56:25;19.90;72.10
6174;DHT22;3120;48.796;9.796;2023-06-24T21:58:50;19.30;70.90
6174;DHT22;3120;48.796;9.796;2023-06-24T22:01:16;19.40;71.10
6174;DHT22;3120;48.796;9.796;2023-06-24T22:03:43;19.30;71.10
6174;DHT22;3120;48.796;9.796;2023-06-24T22:06:09;19.10;71.40
6174;DHT22;3120;48.796;9.796;2023-06-24T22:08:35;19.10;71.90
6174;DHT22;3120;48.796;9.796;2023-06-24T22:11:00;19.20;72.40
6174;DHT22;3120;48.796;9.796;2023-06-24T22:13:26;19.00;72.60
6174;DHT22;3120;48.796;9.796;2023-06-24T22:15:52;19.10;72.60
6174;DHT22;3120;48.796;9.796;2023-06-24T22:18:17;18.90;73.10
6174;DHT22;3120;48.796;9.796;2023-06-24T22:20:43;18.80;73.70
6174;DHT22;3120;48.796;9.796;2023-06-24T22:23:08;18.80;74.00
6174;DHT22;3120;48.796;9.796;2023-06-24T22:25:34;18.60;74.50
6174;DHT22;3120;48.796;9.796;2023-06-24T22:27:59;18.70;75.00
6174;DHT22;3120;48.796;9.796;2023-06-24T22:30:25;18.60;75.10